createdAt,value
2018-11-23T00:00:58.521Z,22.40
2018-11-23T00:03:26.184Z,26.67
2018-11-23T00:05:53.640Z,24.20
2018-11-23T00:08:23.609Z,25.50
2018-11-23T00:10:51.461Z,28.60
2018-11-23T00:13:19.175Z,25.40
2018-11-23T00:16:08.923Z,25.70
2018-11-23T00:18:36.458Z,26.10
2018-11-23T00:21:04.501Z,23.67
2018-11-23T00:23:32.234Z,26.70
2018-11-23T00:25:59.791Z,25.63
2018-11-23T00:28:27.139Z,25.13
2018-11-23T00:30:54.856Z,25.77
2018-11-23T00:33:22.867Z,27.70
2018-11-23T00:36:10.165Z,24.00
2018-11-23T00:38:37.843Z,24.00
2018-11-23T00:44:01.778Z,23.13
2018-11-23T00:46:48.687Z,23.90
2018-11-23T00:49:35.553Z,23.63
2018-11-23T00:52:02.827Z,23.63
2018-11-23T00:54:49.622Z,24.40
2018-11-23T00:57:17.064Z,22.70
2018-11-23T00:59:44.562Z,22.10
2018-11-23T01:02:11.903Z,20.33
2018-11-23T01:04:39.280Z,21.63
2018-11-23T01:07:26.104Z,23.17
2018-11-23T01:10:13.882Z,20.93
2018-11-23T01:12:44.527Z,24.40
2018-11-23T01:15:12.113Z,23.20
2018-11-23T01:17:39.525Z,26.13
2018-11-23T01:20:26.989Z,25.90
2018-11-23T01:25:46.681Z,27.03
2018-11-23T01:28:14.107Z,26.10
2018-11-23T01:31:01.005Z,30.63
2018-11-23T01:33:28.511Z,27.40
2018-11-23T01:35:56.099Z,29.10
2018-11-23T01:38:43.009Z,29.30
2018-11-23T01:41:10.421Z,27.93
2018-11-23T01:43:38.214Z,26.07
2018-11-23T01:46:05.979Z,25.80
2018-11-23T01:48:52.957Z,27.50
2018-11-23T01:51:20.638Z,24.60
2018-11-23T01:53:48.492Z,28.37
2018-11-23T01:56:16.061Z,30.70
2018-11-23T01:58:43.610Z,29.00
2018-11-23T02:01:30.879Z,29.83
2018-11-23T02:04:18.393Z,29.10
2018-11-23T02:07:05.428Z,26.77
2018-11-23T02:09:33.444Z,27.20
2018-11-23T02:12:20.653Z,26.40
2018-11-23T02:14:48.858Z,26.93
2018-11-23T02:17:16.900Z,23.37
2018-11-23T02:22:35.170Z,25.10
2018-11-23T02:25:02.923Z,23.43
2018-11-23T02:27:50.024Z,23.50
2018-11-23T02:30:37.692Z,24.57
2018-11-23T02:33:24.835Z,23.17
2018-11-23T02:36:12.379Z,21.97
2018-11-23T02:38:40.248Z,23.30
2018-11-23T02:41:27.192Z,23.00
2018-11-23T02:44:14.235Z,24.70
2018-11-23T02:47:01.392Z,23.47
2018-11-23T02:49:29.194Z,22.87
2018-11-23T02:52:16.174Z,24.57
2018-11-23T02:55:03.188Z,23.13
2018-11-23T02:57:50.368Z,23.87
2018-11-23T03:00:37.446Z,23.20
2018-11-23T03:03:05.669Z,24.13
2018-11-23T03:05:33.718Z,22.77
2018-11-23T03:08:01.241Z,21.83
2018-11-23T03:10:29.176Z,21.70
2018-11-23T03:13:16.524Z,22.70
2018-11-23T03:16:03.528Z,23.60
2018-11-23T03:18:50.977Z,23.87
2018-11-23T03:21:18.580Z,23.43
2018-11-23T03:23:46.046Z,24.93
2018-11-23T03:26:13.455Z,22.57
2018-11-23T03:28:41.232Z,25.00
2018-11-23T03:31:28.553Z,21.97
2018-11-23T03:33:59.082Z,22.60
2018-11-23T03:36:26.858Z,23.50
2018-11-23T03:38:54.703Z,22.97
2018-11-23T03:41:22.625Z,24.70
2018-11-23T03:44:12.591Z,23.37
2018-11-23T03:47:00.033Z,24.77
2018-11-23T03:49:47.301Z,25.17
2018-11-23T03:52:15.065Z,26.20
2018-11-23T03:55:02.252Z,26.47
2018-11-23T03:57:30.751Z,24.13
2018-11-23T04:00:18.980Z,23.20
2018-11-23T04:02:47.611Z,22.37
2018-11-23T04:05:15.650Z,22.93
2018-11-23T04:07:43.080Z,24.13
2018-11-23T04:10:30.233Z,22.30
2018-11-23T04:12:57.920Z,23.60
2018-11-23T04:15:25.617Z,24.50
2018-11-23T04:18:13.105Z,24.27
2018-11-23T04:23:32.407Z,24.00
2018-11-23T04:26:00.898Z,22.57
2018-11-23T04:28:28.385Z,24.50
2018-11-23T04:31:15.285Z,24.43
2018-11-23T04:33:43.594Z,22.80
2018-11-23T04:36:11.310Z,24.70
2018-11-23T04:38:58.361Z,24.30
2018-11-23T04:41:25.961Z,23.50
2018-11-23T04:44:12.860Z,24.00
2018-11-23T04:47:00.651Z,24.47
2018-11-23T04:49:28.205Z,24.00
2018-11-23T04:51:55.806Z,23.73
2018-11-23T04:54:43.229Z,25.00
2018-11-23T04:57:11.355Z,22.93
2018-11-23T04:59:39.192Z,23.43
2018-11-23T05:02:07.136Z,24.70
2018-11-23T05:04:34.937Z,24.90
2018-11-23T05:07:22.418Z,24.77
2018-11-23T05:10:10.099Z,23.27
2018-11-23T05:12:38.245Z,23.07
2018-11-23T05:15:06.550Z,23.47
2018-11-23T05:17:34.746Z,23.47
2018-11-23T05:20:26.164Z,22.80
2018-11-23T05:32:10.691Z,21.57
2018-11-23T05:34:55.475Z,24.30
2018-11-23T05:38:02.148Z,23.57
2018-11-23T05:44:17.543Z,23.60
2018-11-23T05:46:52.274Z,24.67
2018-11-23T05:49:25.879Z,23.90
2018-11-23T05:52:01.241Z,24.20
2018-11-23T05:54:43.643Z,23.17
2018-11-23T05:57:25.919Z,22.50
2018-11-23T05:59:59.232Z,23.73
2018-11-23T06:19:05.751Z,22.47
2018-11-23T06:21:53.196Z,24.30
2018-11-23T06:24:40.699Z,23.73
2018-11-23T06:27:27.716Z,27.50
2018-11-23T06:30:14.936Z,24.63
2018-11-23T06:33:21.378Z,22.40
2018-11-23T06:35:49.048Z,23.30
2018-11-23T06:38:16.601Z,25.00
2018-11-23T06:41:10.048Z,26.40
2018-11-23T06:43:50.528Z,23.40
2018-11-23T06:46:37.518Z,23.30
2018-11-23T06:49:24.484Z,24.70
2018-11-23T06:51:51.800Z,23.23
2018-11-23T06:54:38.593Z,24.53
2018-11-23T06:57:25.357Z,25.17
2018-11-23T07:00:14.078Z,24.40
2018-11-23T07:03:00.810Z,22.00
2018-11-23T07:05:47.614Z,22.50
2018-11-23T07:08:14.990Z,24.73
2018-11-23T07:11:02.769Z,26.73
2018-11-23T07:13:49.721Z,28.57
2018-11-23T07:16:36.976Z,23.57
2018-11-23T07:19:24.064Z,25.77
2018-11-23T07:22:10.854Z,25.27
2018-11-23T07:24:57.695Z,24.97
2018-11-23T07:27:44.640Z,25.37
2018-11-23T07:30:31.475Z,23.97
2018-11-23T07:33:18.305Z,23.30
2018-11-23T07:36:05.280Z,22.63
2018-11-23T07:38:51.967Z,26.50
2018-11-23T07:41:58.243Z,25.53
2018-11-23T07:44:44.970Z,28.63
2018-11-23T07:47:31.704Z,27.80
2018-11-23T07:50:18.503Z,26.67
2018-11-23T07:53:05.249Z,26.13
2018-11-23T07:55:52.413Z,24.80
2018-11-23T07:58:39.129Z,25.13
2018-11-23T08:01:25.907Z,24.40
2018-11-23T08:04:12.645Z,22.00
2018-11-23T08:06:59.370Z,25.33
2018-11-23T08:09:46.078Z,26.40
2018-11-23T08:12:32.860Z,21.27
2018-11-23T08:15:20.886Z,25.80
2018-11-23T08:18:07.610Z,27.07
2018-11-23T08:20:54.355Z,27.80
2018-11-23T08:23:41.101Z,23.90
2018-11-23T08:26:27.849Z,23.73
2018-11-23T08:29:14.592Z,24.20
2018-11-23T08:32:01.409Z,24.70
2018-11-23T08:34:48.222Z,25.07
2018-11-23T08:37:35.147Z,23.17
2018-11-23T08:40:26.266Z,25.60
2018-11-23T08:43:12.999Z,25.90
2018-11-23T08:45:59.919Z,23.13
2018-11-23T08:48:47.105Z,22.20
2018-11-23T08:51:33.863Z,24.47
2018-11-23T08:54:20.670Z,24.33
2018-11-23T08:57:07.553Z,23.17
2018-11-23T08:59:54.295Z,23.60
2018-11-23T09:02:41.410Z,26.97
2018-11-23T09:05:28.375Z,23.83
2018-11-23T09:08:15.219Z,24.40
2018-11-23T09:11:02.116Z,23.57
2018-11-23T09:13:49.021Z,22.60
2018-11-23T09:16:35.807Z,24.50
2018-11-23T09:19:22.945Z,19.83
2018-11-23T09:22:09.862Z,21.30
2018-11-23T09:24:56.731Z,22.00
2018-11-23T09:27:44.019Z,21.50
2018-11-23T09:30:30.784Z,21.03
2018-11-23T09:33:17.558Z,22.10
2018-11-23T09:35:45.126Z,21.87
2018-11-23T09:38:31.935Z,24.23
2018-11-23T09:41:19.306Z,21.63
2018-11-23T09:44:06.309Z,23.27
2018-11-23T09:49:56.344Z,21.00
2018-11-23T09:52:43.909Z,21.90
2018-11-23T09:55:32.135Z,22.40
2018-11-23T09:58:19.507Z,19.37
2018-11-23T10:03:34.439Z,21.77
2018-11-23T10:06:21.635Z,20.87
2018-11-23T10:09:09.031Z,21.00
2018-11-23T10:11:56.236Z,19.27
2018-11-23T10:14:43.134Z,21.13
2018-11-23T10:17:30.195Z,20.70
2018-11-23T10:20:24.272Z,19.60
2018-11-23T10:23:11.970Z,18.83
2018-11-23T10:25:39.869Z,19.57
2018-11-23T10:28:26.778Z,20.97
2018-11-23T10:31:14.098Z,20.03
2018-11-23T10:33:41.603Z,19.67
2018-11-23T10:36:29.809Z,20.03
2018-11-23T10:38:57.133Z,20.67
2018-11-23T10:41:44.186Z,20.97
2018-11-23T10:44:31.048Z,23.70
2018-11-23T10:47:18.570Z,20.67
2018-11-23T10:50:07.009Z,18.50
2018-11-23T10:52:53.980Z,17.90
2018-11-23T10:55:41.091Z,20.43
2018-11-23T10:58:08.638Z,17.33
2018-11-23T11:00:55.927Z,18.97
2018-11-23T11:04:02.205Z,18.03
2018-11-23T11:06:49.676Z,17.90
2018-11-23T11:09:36.862Z,16.40
2018-11-23T11:12:23.685Z,17.10
2018-11-23T11:15:10.496Z,18.10
2018-11-23T11:17:58.101Z,18.60
2018-11-23T11:20:38.345Z,18.67
2018-11-23T11:23:17.961Z,15.70
2018-11-23T11:25:45.444Z,19.40
2018-11-23T11:28:13.005Z,17.37
2018-11-23T11:31:00.331Z,17.60
2018-11-23T11:33:47.108Z,15.50
2018-11-23T11:36:33.931Z,17.37
2018-11-23T11:39:20.973Z,15.43
2018-11-23T11:42:08.004Z,15.33
2018-11-23T11:44:54.884Z,16.17
2018-11-23T11:47:42.568Z,15.60
2018-11-23T11:50:29.423Z,15.23
2018-11-23T11:53:16.287Z,15.33
2018-11-23T11:56:03.184Z,16.03
2018-11-23T11:58:50.187Z,15.50
2018-11-23T12:01:37.425Z,13.47
2018-11-23T12:04:24.263Z,14.20
2018-11-23T12:07:11.027Z,13.60
2018-11-23T12:09:57.822Z,14.00
2018-11-23T12:13:04.180Z,14.57
2018-11-23T12:15:50.998Z,13.87
2018-11-23T12:18:37.772Z,14.30
2018-11-23T12:21:24.662Z,12.67
2018-11-23T12:24:11.478Z,14.17
2018-11-23T12:26:58.492Z,14.17
2018-11-23T12:29:45.374Z,15.80
2018-11-23T12:32:32.325Z,11.70
2018-11-23T12:35:20.079Z,11.70
2018-11-23T12:37:47.505Z,10.77
2018-11-23T12:40:34.805Z,10.57
2018-11-23T12:43:22.220Z,9.33
2018-11-23T12:45:49.733Z,10.27
2018-11-23T12:48:36.995Z,10.90
2018-11-23T12:51:23.904Z,9.87
2018-11-23T12:54:10.922Z,10.30
2018-11-23T12:56:57.692Z,11.17
2018-11-23T12:59:44.447Z,8.47
2018-11-23T13:02:12.052Z,10.87
2018-11-23T13:04:39.339Z,9.63
2018-11-23T13:07:26.114Z,10.33
2018-11-23T13:09:53.444Z,9.90
2018-11-23T13:12:40.570Z,10.50
2018-11-23T13:15:27.446Z,9.93
2018-11-23T13:18:14.220Z,9.90
2018-11-23T13:21:00.989Z,8.33
2018-11-23T13:23:47.748Z,9.10
2018-11-23T13:26:15.139Z,9.37
2018-11-23T13:29:10.899Z,8.70
2018-11-23T13:31:49.132Z,9.33
2018-11-23T13:34:16.434Z,9.63
2018-11-23T13:37:03.327Z,9.77
2018-11-23T13:39:50.138Z,10.13
2018-11-23T13:42:37.088Z,9.67
2018-11-23T13:45:25.948Z,9.37
2018-11-23T13:48:19.659Z,9.90
2018-11-23T13:50:59.630Z,8.87
2018-11-23T13:53:46.763Z,10.60
2018-11-23T13:56:33.716Z,10.00
2018-11-23T13:59:20.557Z,8.60
2018-11-23T14:02:07.591Z,8.50
2018-11-23T14:04:35.988Z,9.90
2018-11-23T14:07:04.095Z,8.60
2018-11-23T14:09:51.048Z,9.10
2018-11-23T14:12:37.991Z,8.60
2018-11-23T14:15:28.922Z,10.37
2018-11-23T14:18:15.750Z,10.83
2018-11-23T14:21:02.636Z,10.67
2018-11-23T14:23:30.090Z,10.90
2018-11-23T14:25:57.539Z,9.47
2018-11-23T14:28:24.874Z,9.00
2018-11-23T14:31:11.829Z,9.50
2018-11-23T14:33:58.679Z,11.03
2018-11-23T14:36:45.703Z,11.57
2018-11-23T14:39:26.057Z,9.20
2018-11-23T14:42:06.416Z,9.70
2018-11-23T14:44:46.105Z,10.93
2018-11-23T14:47:25.870Z,10.20
2018-11-23T14:50:05.301Z,10.67
2018-11-23T14:52:46.222Z,10.83
2018-11-23T14:55:26.846Z,10.57
2018-11-23T14:57:54.680Z,11.50
2018-11-23T15:00:41.688Z,10.80
2018-11-23T15:03:09.043Z,10.67
2018-11-23T15:05:56.194Z,10.23
2018-11-23T15:08:24.020Z,10.10
2018-11-23T15:10:51.394Z,11.43
2018-11-23T15:13:19.064Z,10.20
2018-11-23T15:16:05.978Z,10.57
2018-11-23T15:18:33.298Z,9.90
2018-11-23T15:21:21.024Z,9.60
2018-11-23T15:23:47.422Z,9.57
2018-11-23T15:26:34.290Z,9.43
2018-11-23T15:29:21.462Z,10.90
2018-11-23T15:31:48.956Z,10.07
2018-11-23T15:34:16.285Z,12.10
2018-11-23T15:37:03.163Z,11.27
2018-11-23T15:39:49.959Z,10.33
2018-11-23T15:42:36.988Z,10.03
2018-11-23T15:45:07.003Z,9.30
2018-11-23T15:47:34.486Z,10.10
2018-11-23T15:50:01.771Z,9.63
2018-11-23T15:52:29.051Z,11.03
2018-11-23T15:55:20.508Z,9.63
2018-11-23T15:57:48.543Z,9.87
2018-11-23T16:00:18.814Z,8.90
2018-11-23T16:03:06.302Z,9.10
2018-11-23T16:05:33.576Z,10.03
2018-11-23T16:08:20.318Z,9.13
2018-11-23T16:11:07.059Z,10.57
2018-11-23T16:13:54.039Z,10.00
2018-11-23T16:17:00.104Z,9.83
2018-11-23T16:19:27.386Z,11.13
2018-11-23T16:22:14.123Z,10.20
2018-11-23T16:24:41.349Z,9.40
2018-11-23T16:27:08.617Z,9.60
2018-11-23T16:29:35.852Z,10.67
2018-11-23T16:32:03.142Z,9.83
2018-11-23T16:34:30.328Z,10.53
2018-11-23T16:37:17.099Z,10.20
2018-11-23T16:40:04.488Z,10.20
2018-11-23T16:42:31.711Z,9.60
2018-11-23T16:44:58.921Z,10.60
2018-11-23T16:47:46.280Z,9.07
2018-11-23T16:50:33.098Z,9.90
2018-11-23T16:53:19.884Z,10.07
2018-11-23T16:56:06.681Z,9.77
2018-11-23T16:58:53.410Z,8.80
2018-11-23T17:01:40.180Z,10.40
2018-11-23T17:04:27.078Z,9.93
2018-11-23T17:07:13.803Z,9.33
2018-11-23T17:09:41.129Z,9.27
2018-11-23T17:12:08.320Z,9.80
2018-11-23T17:14:55.340Z,9.83
2018-11-23T17:17:22.924Z,10.17
2018-11-23T17:19:50.423Z,9.80
2018-11-23T17:22:17.807Z,10.60
2018-11-23T17:25:05.256Z,10.37
2018-11-23T17:27:52.689Z,11.50
2018-11-23T17:30:30.299Z,12.40
2018-11-23T17:33:17.222Z,11.30
2018-11-23T17:35:44.730Z,9.70
2018-11-23T17:38:12.322Z,11.20
2018-11-23T17:43:27.884Z,12.07
2018-11-23T17:45:55.352Z,12.20
2018-11-23T17:48:22.673Z,14.07
2018-11-23T17:50:50.508Z,13.10
2018-11-23T17:53:37.226Z,13.13
2018-11-23T17:56:23.974Z,13.00
2018-11-23T17:59:11.001Z,14.20
2018-11-23T18:02:14.080Z,11.17
2018-11-23T18:08:02.177Z,13.03
2018-11-23T18:10:52.799Z,14.13
2018-11-23T18:13:39.768Z,12.27
2018-11-23T18:16:26.718Z,16.53
2018-11-23T18:22:09.660Z,13.93
2018-11-23T18:27:32.335Z,13.17
2018-11-23T18:36:23.410Z,12.37
2018-11-23T18:39:10.149Z,13.23
2018-11-23T18:41:56.882Z,15.20
2018-11-23T18:47:48.679Z,14.00
2018-11-23T18:53:18.426Z,14.50
2018-11-23T18:56:05.311Z,14.30
2018-11-23T18:58:52.647Z,13.53
2018-11-23T19:01:39.375Z,14.30
2018-11-23T19:04:26.319Z,14.53
2018-11-23T19:06:53.606Z,13.90
2018-11-23T19:09:21.078Z,16.13
2018-11-23T19:11:48.733Z,15.60
2018-11-23T19:14:16.027Z,11.67
2018-11-23T19:16:43.836Z,14.97
2018-11-23T19:19:29.739Z,15.00
2018-11-23T19:21:56.971Z,12.80
2018-11-23T19:24:24.324Z,15.47
2018-11-23T19:26:51.741Z,16.93
2018-11-23T19:29:19.284Z,16.87
2018-11-23T19:31:46.783Z,22.40
2018-11-23T19:34:14.346Z,14.77
2018-11-23T19:37:01.275Z,17.13
2018-11-23T19:39:48.250Z,17.97
2018-11-23T19:42:15.652Z,18.67
2018-11-23T19:45:05.210Z,17.60
2018-11-23T19:47:52.869Z,20.07
2018-11-23T19:50:20.556Z,17.50
2018-11-23T19:53:09.071Z,21.20
2018-11-23T19:55:56.138Z,18.43
2018-11-23T20:01:18.165Z,22.30
2018-11-23T20:03:45.660Z,19.77
2018-11-23T20:06:13.272Z,19.90
2018-11-23T20:08:40.691Z,22.20
2018-11-23T20:11:27.581Z,19.73
2018-11-23T20:14:16.903Z,20.93
2018-11-23T20:17:04.126Z,19.03
2018-11-23T20:19:31.713Z,20.40
2018-11-23T20:21:59.208Z,19.37
2018-11-23T20:24:46.276Z,20.10
2018-11-23T20:27:13.798Z,19.30
2018-11-23T20:29:41.206Z,21.90
2018-11-23T20:32:09.650Z,19.30
2018-11-23T20:34:37.101Z,22.07
2018-11-23T20:37:24.064Z,18.83
2018-11-23T20:39:51.553Z,18.77
2018-11-23T20:42:19.183Z,19.00
2018-11-23T20:44:48.913Z,19.47
2018-11-23T20:47:35.977Z,20.43
2018-11-23T20:50:22.882Z,22.07
2018-11-23T20:52:50.371Z,19.23
2018-11-23T20:55:21.624Z,19.57
2018-11-23T20:57:49.101Z,27.90
2018-11-23T21:00:17.561Z,21.60
2018-11-23T21:02:45.722Z,18.50
2018-11-23T21:05:32.646Z,19.97
2018-11-23T21:08:03.159Z,28.70
2018-11-23T21:10:30.993Z,22.20
2018-11-23T21:13:17.857Z,21.87
2018-11-23T21:15:45.425Z,18.60
2018-11-23T21:18:33.351Z,25.60
2018-11-23T21:21:00.738Z,31.77
2018-11-23T21:23:28.119Z,27.83
2018-11-23T21:26:15.112Z,24.50
2018-11-23T21:28:42.519Z,26.20
2018-11-23T21:31:30.232Z,23.00
2018-11-23T21:34:17.124Z,26.13
2018-11-23T21:36:44.589Z,20.63
2018-11-23T21:39:13.719Z,22.13
2018-11-23T21:41:39.552Z,22.10
2018-11-23T21:44:26.653Z,18.87
2018-11-23T21:46:54.141Z,19.60
2018-11-23T21:49:41.137Z,18.67
2018-11-23T21:52:08.697Z,21.33
2018-11-23T21:54:36.058Z,17.70
2018-11-23T21:57:03.518Z,18.13
2018-11-23T21:59:31.168Z,18.40
2018-11-23T22:01:58.729Z,19.63
2018-11-23T22:04:26.200Z,18.53
2018-11-23T22:06:53.874Z,19.37
2018-11-23T22:09:21.366Z,19.77
2018-11-23T22:11:52.491Z,18.57
2018-11-23T22:14:16.568Z,17.67
2018-11-23T22:16:44.045Z,17.67
2018-11-23T22:19:11.578Z,17.63
2018-11-23T22:21:39.128Z,15.53
2018-11-23T22:24:06.605Z,16.77
2018-11-23T22:26:34.140Z,16.47
2018-11-23T22:29:01.704Z,17.20
2018-11-23T22:31:29.120Z,15.10
2018-11-23T22:33:56.696Z,17.10
2018-11-23T22:36:24.360Z,14.97
2018-11-23T22:38:52.099Z,16.87
2018-11-23T22:41:19.639Z,15.20
2018-11-23T22:43:47.214Z,15.67
2018-11-23T22:46:15.073Z,16.50
2018-11-23T22:48:42.650Z,16.47
2018-11-23T22:51:10.167Z,17.47
2018-11-23T22:53:37.747Z,15.07
2018-11-23T22:56:05.376Z,16.07
2018-11-23T22:58:32.679Z,15.47
2018-11-23T23:01:03.186Z,15.90
2018-11-23T23:03:30.928Z,16.83
2018-11-23T23:06:19.514Z,15.20
2018-11-23T23:08:47.067Z,15.53
2018-11-23T23:11:33.975Z,15.07
2018-11-23T23:14:20.803Z,15.83
2018-11-23T23:16:48.449Z,15.67
2018-11-23T23:19:16.207Z,15.60
2018-11-23T23:21:43.747Z,16.37
2018-11-23T23:24:11.981Z,14.53
2018-11-23T23:26:38.800Z,17.20
2018-11-23T23:29:06.313Z,13.80
2018-11-23T23:31:33.858Z,16.90
2018-11-23T23:34:01.501Z,16.53
2018-11-23T23:36:48.564Z,17.53
2018-11-23T23:39:16.052Z,16.53
2018-11-23T23:41:43.544Z,16.10
2018-11-23T23:44:10.973Z,16.37
2018-11-23T23:46:38.540Z,16.17
2018-11-23T23:49:28.526Z,17.03
2018-11-23T23:52:15.754Z,16.37
2018-11-23T23:54:43.274Z,17.00
2018-11-23T23:57:30.484Z,21.00
2018-11-23T23:59:57.940Z,15.93
